Aviation Digital Data Service (ADDS)

Output produced by METARs form (2215 UTC 24 March 2019)
found at http://www.aviationweather.gov/metar/data/
 
TAF KVBG 241402Z 2414/2520 VRB06KT 8000 BR SKC QNH3016INS 
     BECMG 2509/2510 VRB06KT 8000 BR SCT005 QNH3015INS 
     BECMG 2518/2519 VRB06KT 9999 NSW SKC QNH3016INS TX16/2421Z TN05/2512Z
       
KVCT 242001Z 2420/2518 16013KT P6SM SCT025 BKN050 
     FM250100 16008KT P6SM SCT020 BKN050 
     FM250400 17005KT 5SM BR BKN015 
     FM250700 19004KT 2SM BR OVC008 
     TEMPO 2509/2513 1/2SM FG OVC004 
     FM251600 23005KT 5SM BR OVC008
       
KVEL 241740Z 2418/2518 VRB03KT P6SM VCSH BKN020 OVC030 
     TEMPO 2418/2420 5SM -RA OVC020 
     FM242000 24010KT P6SM VCSH SCT040 BKN070 
     FM250100 VRB04KT P6SM FEW050 SCT100
       
KVGT 241720Z 2418/2518 36010KT P6SM SKC 
     FM242000 VRB05KT P6SM SCT250 
     FM250500 33006KT P6SM SCT250 
     FM251700 11006KT P6SM SCT250
       
KVIS 241733Z 2418/2518 17004KT P6SM SKC 
     FM250500 VRB02KT P6SM SKC
       
KVLD 241720Z 2418/2518 17006KT P6SM SCT250 
     FM250000 00000KT P6SM SCT250 
     FM251400 21006KT P6SM SCT250
       
KVNY 241721Z 2418/2518 VRB03KT P6SM SKC 
     FM242000 15007KT P6SM SKC 
     FM250300 VRB03KT P6SM SKC
       
TAF KVPS 241700Z 2417/2523 17009KT 9999 FEW160 SCT250 QNH3010INS 
     BECMG 2511/2512 16006KT 8000 BR SCT010 QNH3014INS 
     BECMG 2514/2515 24012G18KT 9999 NSW FEW050 QNH3007INS 
     BECMG 2519/2520 24012G18KT 9999 BKN040 QNH3007INS TX22/2420Z TN12/2513Z
       
KVQQ 241726Z 2418/2518 14009KT P6SM FEW050 
     FM242300 15003KT P6SM FEW050 SCT250 
     FM250700 00000KT P6SM SCT060 SCT250 
     FM251400 21004KT P6SM SCT030 BKN060
       
KVRB 241720Z 2418/2518 11012KT P6SM SCT050 SCT250 
     FM250000 12005KT P6SM FEW030 SCT250 
     FM251400 11008KT P6SM SCT045 SCT250
       
KVTN 242153Z 2422/2518 06006KT P6SM OVC050 
     FM250200 04008KT P6SM OVC015 
     FM250500 05007KT 3SM -RASN BR OVC005 
     FM251000 08005KT 1SM -SN BR OVC001 
     FM251600 14008KT 3SM -RA BR OVC004